Time;durP1;ratioP1;P1;durP2;ratioP2;P2;SDS_P1;SDS_P2;PMS_P1;PMS_P2;Temp;Humidity;BMP_temperature;BMP_pressure;BME280_temperature;BME280_humidity;BME280_pressure;Samples;Min_cycle;Max_cycle;Signal;HPM_P1;HPM_P2
2023/11/13 00:01:46;;;;;;;10.45;7.85;;;6.90;89.90;;;;;;4994815;28;20026;-29
2023/11/13 00:04:13;;;;;;;11.60;7.65;;;6.80;89.90;;;;;;4994722;28;20022;-30
2023/11/13 00:06:38;;;;;;;11.48;7.53;;;6.80;90.00;;;;;;4994616;28;20177;-31
2023/11/13 00:09:04;;;;;;;9.48;7.05;;;6.80;90.00;;;;;;4994616;28;20094;-29
2023/11/13 00:11:30;;;;;;;12.98;7.78;;;6.80;90.00;;;;;;4994594;28;20026;-33
2023/11/13 00:13:55;;;;;;;9.40;7.38;;;6.70;90.00;;;;;;4994657;28;20146;-29
2023/11/13 00:16:21;;;;;;;11.20;7.35;;;6.70;90.00;;;;;;4994554;28;20084;-32
2023/11/13 00:18:46;;;;;;;11.32;7.75;;;6.70;90.00;;;;;;4994325;28;20434;-33
2023/11/13 00:21:15;;;;;;;11.75;7.95;;;6.70;90.00;;;;;;4994830;28;20540;-29
2023/11/13 00:23:43;;;;;;;11.27;8.10;;;6.60;90.00;;;;;;4994385;28;20037;-29
2023/11/13 00:26:09;;;;;;;11.82;7.65;;;6.60;90.00;;;;;;4994234;28;20415;-31
2023/11/13 00:28:35;;;;;;;10.15;7.45;;;6.50;90.10;;;;;;4994241;28;20072;-30
2023/11/13 00:31:01;;;;;;;11.90;7.32;;;6.50;90.10;;;;;;4994265;28;20057;-29
2023/11/13 00:33:28;;;;;;;9.27;6.93;;;6.50;90.10;;;;;;4994252;28;20479;-30
2023/11/13 00:35:53;;;;;;;10.18;7.50;;;6.50;90.40;;;;;;4994320;28;20022;-29
2023/11/13 00:38:19;;;;;;;8.95;7.18;;;6.50;90.20;;;;;;4994059;28;20463;-28
2023/11/13 00:40:45;;;;;;;10.68;8.00;;;6.50;90.20;;;;;;4994087;28;20027;-28
2023/11/13 00:43:10;;;;;;;10.07;7.30;;;6.40;90.20;;;;;;4994090;28;20026;-29
2023/11/13 00:45:36;;;;;;;13.73;8.00;;;6.40;90.20;;;;;;4993982;28;20065;-28
2023/11/13 00:48:01;;;;;;;14.38;7.80;;;6.50;90.20;;;;;;4993834;28;20038;-28
2023/11/13 00:50:27;;;;;;;10.82;7.25;;;6.50;90.20;;;;;;4993797;28;20446;-29
2023/11/13 00:52:53;;;;;;;11.00;7.50;;;6.50;90.20;;;;;;4993852;28;20034;-29
2023/11/13 00:55:19;;;;;;;13.27;7.80;;;6.50;90.10;;;;;;4993830;28;20371;-29
2023/11/13 00:57:45;;;;;;;11.57;7.47;;;6.50;90.20;;;;;;4993877;28;20026;-29
2023/11/13 01:00:13;;;;;;;11.82;7.20;;;6.50;90.20;;;;;;4993440;28;20363;-29
2023/11/13 01:02:38;;;;;;;10.57;7.20;;;6.50;90.20;;;;;;4993695;28;20513;-29
2023/11/13 01:05:05;;;;;;;11.98;7.82;;;6.50;90.20;;;;;;4993711;28;20057;-29
2023/11/13 01:07:30;;;;;;;9.80;7.25;;;6.50;90.20;;;;;;4993647;28;20060;-29
2023/11/13 01:09:56;;;;;;;10.77;7.25;;;6.50;90.20;;;;;;4993443;28;20058;-30
2023/11/13 01:12:22;;;;;;;11.73;7.28;;;6.50;90.20;;;;;;4993438;28;20034;-28
2023/11/13 01:14:51;;;;;;;9.70;7.35;;;6.50;90.20;;;;;;4993441;28;20073;-30
2023/11/13 01:17:17;;;;;;;8.80;7.35;;;6.50;90.20;;;;;;4993390;28;20054;-33
2023/11/13 01:19:43;;;;;;;11.60;7.35;;;6.50;90.20;;;;;;4993485;28;20081;-28
2023/11/13 01:22:08;;;;;;;10.10;7.32;;;6.40;90.10;;;;;;4993313;28;20034;-30
2023/11/13 01:24:34;;;;;;;11.98;8.27;;;6.40;90.10;;;;;;4991940;28;20034;-28
2023/11/13 01:27:00;;;;;;;12.48;7.53;;;6.40;90.10;;;;;;4993146;28;20042;-29
2023/11/13 01:29:26;;;;;;;10.65;7.15;;;6.40;90.10;;;;;;4992890;28;20039;-38
2023/11/13 01:31:51;;;;;;;10.10;7.20;;;6.40;90.10;;;;;;4993369;28;20049;-28
2023/11/13 01:34:17;;;;;;;8.85;7.13;;;6.40;90.20;;;;;;4993150;28;20018;-29
2023/11/13 01:36:46;;;;;;;9.15;6.40;;;6.40;90.20;;;;;;4993027;28;20034;-28
2023/11/13 01:39:12;;;;;;;9.68;7.43;;;6.40;90.20;;;;;;4993176;28;20081;-28
2023/11/13 01:41:39;;;;;;;13.02;7.57;;;6.40;90.20;;;;;;4993326;28;20505;-30
2023/11/13 01:44:07;;;;;;;9.82;7.32;;;6.40;90.20;;;;;;4992817;28;20022;-28
2023/11/13 01:46:33;;;;;;;9.35;6.95;;;6.40;90.20;;;;;;4992861;28;20491;-30
2023/11/13 01:48:59;;;;;;;12.18;7.32;;;6.40;90.20;;;;;;4992962;28;20514;-28
2023/11/13 01:51:28;;;;;;;10.20;7.10;;;6.40;90.20;;;;;;4993101;28;20093;-29
2023/11/13 01:53:59;;;;;;;11.85;7.35;;;6.40;90.20;;;;;;4992988;28;20029;-28
2023/11/13 01:56:29;;;;;;;12.63;7.45;;;6.40;90.20;;;;;;4992786;28;20022;-28
2023/11/13 01:58:57;;;;;;;10.30;7.30;;;6.40;90.20;;;;;;4992457;28;20026;-29
2023/11/13 02:01:25;;;;;;;9.43;6.80;;;6.40;90.50;;;;;;4992613;28;20030;-28
2023/11/13 02:03:54;;;;;;;10.65;6.82;;;6.40;90.20;;;;;;4992480;28;20092;-30
2023/11/13 02:06:22;;;;;;;10.77;7.10;;;6.40;90.20;;;;;;4992539;28;20569;-31
2023/11/13 02:08:48;;;;;;;8.95;6.93;;;6.40;90.20;;;;;;4992631;28;20026;-29
2023/11/13 02:11:15;;;;;;;10.80;7.20;;;6.50;90.20;;;;;;4992512;28;20038;-27
2023/11/13 02:13:40;;;;;;;8.57;6.88;;;6.50;90.20;;;;;;4990972;28;20026;-30
2023/11/13 02:16:06;;;;;;;9.88;6.93;;;6.50;90.20;;;;;;4992403;28;20030;-31
2023/11/13 02:18:38;;;;;;;9.50;6.60;;;6.50;90.10;;;;;;4992639;28;20030;-33
2023/11/13 02:21:04;;;;;;;10.23;6.68;;;6.50;90.10;;;;;;4992377;28;20022;-29
2023/11/13 02:23:30;;;;;;;8.38;6.70;;;6.60;90.10;;;;;;4992442;28;20066;-32
2023/11/13 02:25:57;;;;;;;9.35;6.40;;;6.60;90.10;;;;;;4990936;28;20081;-29
2023/11/13 02:28:24;;;;;;;8.45;6.47;;;6.60;90.10;;;;;;4992418;28;20550;-29
2023/11/13 02:30:49;;;;;;;7.60;5.80;;;6.60;90.10;;;;;;4992397;28;20021;-29
2023/11/13 02:33:15;;;;;;;7.68;6.22;;;6.70;90.10;;;;;;4992727;28;20437;-32
2023/11/13 02:35:42;;;;;;;9.15;6.32;;;6.70;90.10;;;;;;4992506;28;20028;-30
2023/11/13 02:38:07;;;;;;;11.90;6.65;;;6.70;90.10;;;;;;4992301;28;20048;-30
2023/11/13 02:40:33;;;;;;;10.63;7.50;;;6.70;90.10;;;;;;4992076;28;20455;-29
2023/11/13 02:42:59;;;;;;;8.82;6.75;;;6.70;90.00;;;;;;4992101;28;20026;-29
2023/11/13 02:45:26;;;;;;;10.23;6.60;;;6.80;90.10;;;;;;4992427;28;20088;-28
2023/11/13 02:47:51;;;;;;;9.23;6.60;;;6.80;90.00;;;;;;4992197;28;20052;-28
2023/11/13 02:50:18;;;;;;;8.18;6.32;;;6.80;90.00;;;;;;4992046;28;20498;-28
2023/11/13 02:52:43;;;;;;;10.57;6.88;;;6.80;90.30;;;;;;4992077;28;20023;-30
2023/11/13 02:55:09;;;;;;;9.32;6.20;;;6.80;90.00;;;;;;4992052;28;20027;-33
2023/11/13 02:57:36;;;;;;;7.32;5.80;;;6.80;90.00;;;;;;4992197;28;20034;-28
2023/11/13 03:00:09;;;;;;;8.60;5.95;;;6.80;90.00;;;;;;4992076;28;20102;-27
2023/11/13 03:02:36;;;;;;;8.32;5.68;;;6.80;90.00;;;;;;4992056;28;20026;-28
2023/11/13 03:05:01;;;;;;;9.35;6.43;;;6.80;90.00;;;;;;4991936;28;20033;-28
2023/11/13 03:07:27;;;;;;;9.68;6.53;;;6.80;90.30;;;;;;4991996;28;20483;-29
2023/11/13 03:09:55;;;;;;;8.80;6.70;;;6.80;90.00;;;;;;4992135;28;20026;-28
2023/11/13 03:12:22;;;;;;;9.88;6.53;;;6.80;90.00;;;;;;4991786;28;20026;-29
2023/11/13 03:14:48;;;;;;;8.48;5.75;;;6.80;90.00;;;;;;4991975;28;20048;-29
2023/11/13 03:17:14;;;;;;;9.57;6.28;;;6.80;90.00;;;;;;4991770;28;20610;-29
2023/11/13 03:19:40;;;;;;;8.00;5.90;;;6.80;90.00;;;;;;4991708;28;20039;-30
2023/11/13 03:22:06;;;;;;;9.10;6.15;;;6.90;90.00;;;;;;4992135;28;20026;-29
2023/11/13 03:24:32;;;;;;;8.80;6.00;;;6.90;90.00;;;;;;4990410;28;20041;-28
2023/11/13 03:26:57;;;;;;;9.27;6.50;;;6.90;90.00;;;;;;4993491;28;20022;-29
2023/11/13 03:29:25;;;;;;;9.60;6.00;;;6.90;90.00;;;;;;4995307;28;20092;-28
2023/11/13 03:31:50;;;;;;;8.98;5.82;;;6.90;90.00;;;;;;4995661;28;20018;-31
2023/11/13 03:34:17;;;;;;;8.70;5.97;;;7.00;90.00;;;;;;4995471;28;20386;-29
2023/11/13 03:36:44;;;;;;;8.57;6.28;;;7.00;90.00;;;;;;4995576;28;20026;-29
2023/11/13 03:39:10;;;;;;;9.50;6.50;;;7.00;90.00;;;;;;4995390;28;20382;-28
2023/11/13 03:41:36;;;;;;;8.38;5.97;;;7.00;89.90;;;;;;4995528;28;20034;-38
2023/11/13 03:44:02;;;;;;;9.48;6.50;;;7.10;90.00;;;;;;4995110;28;20102;-28
2023/11/13 03:46:27;;;;;;;8.60;6.07;;;7.10;89.90;;;;;;4995212;28;20046;-29
2023/11/13 03:48:54;;;;;;;8.15;5.78;;;7.20;89.90;;;;;;4995187;28;20026;-29
2023/11/13 03:51:21;;;;;;;8.10;5.78;;;7.20;89.80;;;;;;4995461;28;20080;-29
2023/11/13 03:53:46;;;;;;;7.47;4.95;;;7.20;89.80;;;;;;4995362;28;20102;-31
2023/11/13 03:56:12;;;;;;;8.32;5.93;;;7.20;89.80;;;;;;4994884;28;20059;-30
2023/11/13 03:58:38;;;;;;;7.85;5.82;;;7.20;89.70;;;;;;4994875;28;20030;-28
2023/11/13 04:01:03;;;;;;;8.40;5.82;;;7.20;89.70;;;;;;4994909;28;20386;-28
2023/11/13 04:03:29;;;;;;;8.40;5.68;;;7.30;89.70;;;;;;4995141;28;20054;-28
2023/11/13 04:05:54;;;;;;;8.18;5.80;;;7.30;89.70;;;;;;4995288;28;20050;-29
2023/11/13 04:08:20;;;;;;;7.40;5.60;;;7.30;89.70;;;;;;4994683;28;20027;-29
2023/11/13 04:10:47;;;;;;;8.35;5.28;;;7.30;89.70;;;;;;4994566;28;20401;-30
2023/11/13 04:13:14;;;;;;;8.00;5.20;;;7.30;89.70;;;;;;4994842;28;20022;-31
2023/11/13 04:15:39;;;;;;;11.70;5.57;;;7.40;89.70;;;;;;4994661;28;20025;-34
2023/11/13 04:18:05;;;;;;;8.63;5.60;;;7.40;89.60;;;;;;4994774;28;20018;-29
2023/11/13 04:20:31;;;;;;;7.32;5.43;;;7.40;89.60;;;;;;4994331;28;20066;-33
2023/11/13 04:22:57;;;;;;;8.65;5.10;;;7.30;89.60;;;;;;4993209;28;20180;-32
2023/11/13 04:25:23;;;;;;;8.10;5.78;;;7.40;89.60;;;;;;4994341;28;20026;-29
2023/11/13 04:27:48;;;;;;;8.18;5.72;;;7.40;89.60;;;;;;4994672;28;20052;-29
2023/11/13 04:30:14;;;;;;;7.88;5.80;;;7.40;89.60;;;;;;4994322;28;20030;-28
2023/11/13 04:32:42;;;;;;;9.43;6.05;;;7.40;89.60;;;;;;4994625;28;20022;-29
2023/11/13 04:35:08;;;;;;;9.15;5.57;;;7.40;89.60;;;;;;4994376;28;20026;-33
2023/11/13 04:37:33;;;;;;;8.73;5.28;;;7.40;89.50;;;;;;4993842;28;20084;-28
2023/11/13 04:39:59;;;;;;;11.27;5.70;;;7.50;89.60;;;;;;4994297;28;20117;-29
2023/11/13 04:42:25;;;;;;;7.88;5.60;;;7.50;89.60;;;;;;4994162;28;20035;-28
2023/11/13 04:44:50;;;;;;;7.75;5.63;;;7.50;89.60;;;;;;4993960;28;20137;-29
2023/11/13 04:47:16;;;;;;;8.70;5.60;;;7.40;89.50;;;;;;4993962;28;20053;-28
2023/11/13 04:49:42;;;;;;;7.35;5.13;;;7.40;89.60;;;;;;4993707;28;20061;-30
2023/11/13 04:52:07;;;;;;;8.18;5.03;;;7.50;89.70;;;;;;4993854;28;20480;-29
2023/11/13 04:54:33;;;;;;;8.10;5.70;;;7.50;89.70;;;;;;4992601;28;20029;-28
2023/11/13 04:56:59;;;;;;;8.00;5.10;;;7.50;89.70;;;;;;4993799;28;20065;-31
2023/11/13 04:59:25;;;;;;;7.05;5.18;;;7.50;89.70;;;;;;4992323;28;20033;-28
2023/11/13 05:01:51;;;;;;;8.07;5.43;;;7.50;89.70;;;;;;4993972;28;20168;-29
2023/11/13 05:04:17;;;;;;;8.48;5.63;;;7.50;89.70;;;;;;4993967;28;20059;-29
2023/11/13 05:06:43;;;;;;;8.05;5.63;;;7.50;89.60;;;;;;4993796;28;20463;-29
2023/11/13 05:09:08;;;;;;;8.32;5.90;;;7.60;89.70;;;;;;4993703;28;20069;-29
2023/11/13 05:11:34;;;;;;;7.13;4.90;;;7.60;89.80;;;;;;4993475;28;20037;-29
2023/11/13 05:14:00;;;;;;;9.23;6.10;;;7.60;89.70;;;;;;4993612;28;20482;-30
2023/11/13 05:16:28;;;;;;;8.90;5.93;;;7.60;89.80;;;;;;4993168;28;20050;-30
2023/11/13 05:18:54;;;;;;;8.48;5.50;;;7.60;89.80;;;;;;4992770;28;20101;-30
2023/11/13 05:21:20;;;;;;;7.03;5.40;;;7.60;89.80;;;;;;4992552;28;20085;-30
2023/11/13 05:23:47;;;;;;;6.78;4.93;;;7.60;89.80;;;;;;4993404;28;20445;-32
2023/11/13 05:26:16;;;;;;;7.95;5.63;;;7.60;89.90;;;;;;4993610;28;20106;-29
2023/11/13 05:28:42;;;;;;;8.75;5.22;;;7.60;90.00;;;;;;4993063;28;20073;-29
2023/11/13 05:31:08;;;;;;;7.82;5.15;;;7.60;90.00;;;;;;4993217;28;20026;-32
2023/11/13 05:33:34;;;;;;;9.85;5.90;;;7.70;90.00;;;;;;4993218;28;20379;-30
2023/11/13 05:36:00;;;;;;;7.95;5.45;;;7.70;90.00;;;;;;4993077;28;20474;-32
2023/11/13 05:38:25;;;;;;;7.40;5.70;;;7.70;90.00;;;;;;4993024;28;20030;-29
2023/11/13 05:40:51;;;;;;;8.25;5.90;;;7.70;90.00;;;;;;4992851;28;20022;-28
2023/11/13 05:43:17;;;;;;;8.27;5.88;;;7.70;90.00;;;;;;4993083;28;20050;-34
2023/11/13 05:45:42;;;;;;;7.03;5.22;;;7.70;90.10;;;;;;4992783;28;20031;-30
2023/11/13 05:48:08;;;;;;;8.15;5.72;;;7.70;90.10;;;;;;4992723;28;20014;-29
2023/11/13 05:50:34;;;;;;;8.07;6.15;;;7.70;90.10;;;;;;4992204;28;20332;-28
2023/11/13 05:53:00;;;;;;;8.15;6.05;;;7.70;90.10;;;;;;4992838;28;20053;-29
2023/11/13 05:55:26;;;;;;;9.77;6.53;;;7.70;90.10;;;;;;4992831;28;20109;-31
2023/11/13 05:57:52;;;;;;;7.10;6.15;;;7.80;90.10;;;;;;4992656;28;20037;-30
2023/11/13 06:00:21;;;;;;;7.60;6.30;;;7.70;90.10;;;;;;4992535;28;20089;-28
2023/11/13 06:02:47;;;;;;;8.77;6.47;;;7.70;90.10;;;;;;4991415;28;20029;-29
2023/11/13 06:05:14;;;;;;;9.80;6.88;;;7.70;90.20;;;;;;4992379;28;20084;-29
2023/11/13 06:07:40;;;;;;;49.72;8.93;;;7.70;90.20;;;;;;4992660;28;20422;-30
2023/11/13 06:10:07;;;;;;;8.13;6.78;;;7.70;90.20;;;;;;4992604;28;20026;-30
2023/11/13 06:12:39;;;;;;;11.40;7.72;;;7.80;90.20;;;;;;4992106;28;20034;-31
2023/11/13 06:15:10;;;;;;;8.27;6.60;;;7.80;90.20;;;;;;4993045;28;20030;-28
2023/11/13 06:17:36;;;;;;;10.48;6.72;;;7.80;90.30;;;;;;4992249;28;20136;-29
2023/11/13 06:20:02;;;;;;;10.23;7.18;;;7.80;90.30;;;;;;4992454;28;20031;-29
2023/11/13 06:22:28;;;;;;;10.82;6.90;;;7.80;90.30;;;;;;4992620;28;20023;-30
2023/11/13 06:24:54;;;;;;;9.88;6.82;;;7.80;90.30;;;;;;4992172;28;20026;-29
2023/11/13 06:27:20;;;;;;;12.70;7.07;;;7.80;90.30;;;;;;4992501;28;20027;-32
2023/11/13 06:29:45;;;;;;;11.38;7.35;;;7.90;90.30;;;;;;4991948;28;20129;-29
2023/11/13 06:32:11;;;;;;;13.85;8.18;;;7.90;90.30;;;;;;4992366;28;20026;-29
2023/11/13 06:34:36;;;;;;;14.30;7.75;;;7.90;90.30;;;;;;4992628;28;20029;-30
2023/11/13 06:37:02;;;;;;;205.30;16.15;;;7.90;90.30;;;;;;4992009;28;20061;-31
2023/11/13 06:39:28;;;;;;;96.70;11.70;;;7.90;90.30;;;;;;4992053;28;20049;-29
2023/11/13 06:41:53;;;;;;;134.55;13.68;;;7.90;90.30;;;;;;4990735;28;20031;-31
2023/11/13 06:44:19;;;;;;;19.80;9.90;;;8.00;90.40;;;;;;4991936;28;20482;-37
2023/11/13 06:46:45;;;;;;;14.60;8.90;;;7.90;90.40;;;;;;4991888;28;20038;-29
2023/11/13 06:49:11;;;;;;;13.20;9.13;;;8.00;90.50;;;;;;4991924;28;20022;-34
2023/11/13 06:51:37;;;;;;;15.13;9.60;;;7.90;90.50;;;;;;4991960;28;20072;-29
2023/11/13 06:54:03;;;;;;;14.50;9.20;;;7.90;90.50;;;;;;4992193;28;20390;-29
2023/11/13 06:56:32;;;;;;;13.95;8.80;;;7.90;90.50;;;;;;4992011;28;20049;-29
2023/11/13 06:58:59;;;;;;;13.35;9.07;;;7.90;90.50;;;;;;4991750;28;20475;-31
2023/11/13 07:01:25;;;;;;;17.25;8.88;;;8.00;90.60;;;;;;4994438;28;20026;-28
2023/11/13 07:03:51;;;;;;;22.55;8.77;;;8.00;90.60;;;;;;4995939;28;20423;-28
2023/11/13 07:06:17;;;;;;;11.60;8.07;;;8.00;90.60;;;;;;4995743;28;20073;-29
2023/11/13 07:08:43;;;;;;;16.20;7.75;;;8.10;90.60;;;;;;4995573;28;20198;-31
2023/11/13 07:11:10;;;;;;;17.13;8.38;;;8.10;90.60;;;;;;4995684;28;20030;-29
2023/11/13 07:13:38;;;;;;;19.40;8.95;;;8.10;90.70;;;;;;4995902;28;20107;-31
2023/11/13 07:16:04;;;;;;;12.35;7.65;;;8.10;90.60;;;;;;4995652;28;20033;-28
2023/11/13 07:18:32;;;;;;;15.23;8.30;;;8.10;90.70;;;;;;4995737;28;20438;-32
2023/11/13 07:20:58;;;;;;;13.10;8.05;;;8.10;90.60;;;;;;4995768;28;20363;-29
2023/11/13 07:23:24;;;;;;;20.25;7.88;;;8.10;90.70;;;;;;4995825;28;20100;-28
2023/11/13 07:25:49;;;;;;;12.65;8.80;;;8.20;90.70;;;;;;4995245;28;20038;-32
2023/11/13 07:28:16;;;;;;;15.38;8.20;;;8.20;90.70;;;;;;4995478;28;20031;-28
2023/11/13 07:30:41;;;;;;;14.48;7.72;;;8.30;90.70;;;;;;4995579;28;20025;-29
2023/11/13 07:33:07;;;;;;;14.65;8.32;;;8.30;90.70;;;;;;4995621;28;20530;-32
2023/11/13 07:35:33;;;;;;;12.40;8.25;;;8.30;90.70;;;;;;4995287;28;20068;-30
2023/11/13 07:38:01;;;;;;;11.88;8.00;;;8.30;90.70;;;;;;4995458;28;20133;-31
2023/11/13 07:40:26;;;;;;;13.65;7.60;;;8.40;90.70;;;;;;4995185;28;20036;-28
2023/11/13 07:42:52;;;;;;;12.93;8.00;;;8.40;90.70;;;;;;4995446;28;20022;-33
2023/11/13 07:45:18;;;;;;;13.48;8.25;;;8.40;90.70;;;;;;4995021;28;20026;-30
2023/11/13 07:47:44;;;;;;;11.75;7.63;;;8.40;90.70;;;;;;4995084;28;20022;-29
2023/11/13 07:50:11;;;;;;;13.25;7.68;;;8.50;90.80;;;;;;4994885;28;20030;-31
2023/11/13 07:52:42;;;;;;;10.65;7.50;;;8.50;90.70;;;;;;4995282;28;20621;-33
2023/11/13 07:55:12;;;;;;;11.13;7.65;;;8.60;90.80;;;;;;4994866;28;20092;-31
2023/11/13 07:57:38;;;;;;;11.88;7.80;;;8.60;90.80;;;;;;4995161;28;20034;-30
2023/11/13 08:00:09;;;;;;;11.65;7.35;;;8.60;90.80;;;;;;4994875;28;20051;-29
2023/11/13 08:02:42;;;;;;;9.38;6.75;;;8.60;90.70;;;;;;4995008;28;20433;-31
2023/11/13 08:05:11;;;;;;;11.80;7.43;;;8.60;90.70;;;;;;4994883;28;20034;-32
2023/11/13 08:07:41;;;;;;;9.65;6.90;;;8.60;90.70;;;;;;4994971;28;20022;-27
2023/11/13 08:10:13;;;;;;;10.57;6.95;;;8.70;90.80;;;;;;4993469;28;20113;-29
2023/11/13 08:12:45;;;;;;;8.43;6.20;;;8.70;90.80;;;;;;4993910;28;20034;-26
2023/11/13 08:15:14;;;;;;;7.57;5.93;;;8.70;90.80;;;;;;4994767;28;20030;-27
2023/11/13 08:17:45;;;;;;;8.68;5.80;;;8.70;90.80;;;;;;4994467;28;20630;-28
2023/11/13 08:20:15;;;;;;;10.57;6.78;;;8.70;90.80;;;;;;4994532;28;20104;-30
2023/11/13 08:22:46;;;;;;;12.20;6.68;;;8.80;90.90;;;;;;4993352;28;20041;-31
2023/11/13 08:25:12;;;;;;;8.80;6.70;;;8.80;90.90;;;;;;4994388;28;20037;-29
2023/11/13 08:27:45;;;;;;;9.43;6.63;;;8.80;90.90;;;;;;4994494;28;20474;-30
2023/11/13 08:30:14;;;;;;;8.27;6.25;;;8.80;90.90;;;;;;4994320;28;20121;-29
2023/11/13 08:32:41;;;;;;;9.50;6.43;;;8.90;90.90;;;;;;4994385;28;20026;-29
2023/11/13 08:35:11;;;;;;;11.70;7.13;;;8.90;90.90;;;;;;4994533;28;20540;-29
2023/11/13 08:37:38;;;;;;;8.38;6.03;;;8.90;90.90;;;;;;4994179;28;20030;-27
2023/11/13 08:40:05;;;;;;;8.38;5.65;;;8.90;91.00;;;;;;4993903;28;20030;-28
2023/11/13 08:42:31;;;;;;;10.00;6.68;;;8.90;91.00;;;;;;4994384;28;20034;-29
2023/11/13 08:44:56;;;;;;;7.70;6.00;;;9.00;91.00;;;;;;4994289;28;20030;-27
2023/11/13 08:47:22;;;;;;;8.07;5.57;;;9.00;91.00;;;;;;4994228;28;20023;-28
2023/11/13 08:49:48;;;;;;;9.45;5.88;;;9.10;91.10;;;;;;4993934;28;20471;-29
2023/11/13 08:52:13;;;;;;;7.72;5.57;;;9.10;91.10;;;;;;4993798;28;20041;-28
2023/11/13 08:54:39;;;;;;;7.63;5.90;;;9.10;91.10;;;;;;4994251;28;20029;-28
2023/11/13 08:57:07;;;;;;;8.98;5.32;;;9.10;91.10;;;;;;4993760;28;20034;-30
2023/11/13 08:59:38;;;;;;;7.18;5.80;;;9.20;91.10;;;;;;4993952;28;20363;-29
2023/11/13 09:02:05;;;;;;;7.70;5.85;;;9.20;91.10;;;;;;4992497;28;20433;-30
2023/11/13 09:04:34;;;;;;;7.32;5.82;;;9.20;91.10;;;;;;4993664;28;20104;-29
2023/11/13 09:07:11;;;;;;;7.35;5.70;;;9.20;91.10;;;;;;4993938;28;20057;-28
2023/11/13 09:09:37;;;;;;;7.25;5.78;;;9.30;91.20;;;;;;4993721;28;20130;-27
2023/11/13 09:12:04;;;;;;;7.47;4.93;;;9.30;91.20;;;;;;4993183;28;20027;-29
2023/11/13 09:14:36;;;;;;;7.30;5.82;;;9.40;91.40;;;;;;4993868;28;20387;-28
2023/11/13 09:17:09;;;;;;;7.07;5.43;;;9.40;91.20;;;;;;4993386;28;20037;-28
2023/11/13 09:19:38;;;;;;;7.10;5.38;;;9.40;91.20;;;;;;4993678;28;20354;-27
2023/11/13 09:22:09;;;;;;;6.75;4.93;;;9.50;91.20;;;;;;4993437;28;20433;-27
2023/11/13 09:24:41;;;;;;;6.93;5.20;;;9.50;91.20;;;;;;4992564;28;20529;-29
2023/11/13 09:27:11;;;;;;;5.70;4.72;;;9.50;91.20;;;;;;4993609;28;20105;-28
2023/11/13 09:29:43;;;;;;;6.63;5.15;;;9.50;91.20;;;;;;4993089;28;20049;-27
2023/11/13 09:32:11;;;;;;;8.68;5.20;;;9.60;91.20;;;;;;4993270;28;20023;-28
2023/11/13 09:34:38;;;;;;;7.45;5.20;;;9.60;91.30;;;;;;4993510;28;20493;-29
2023/11/13 09:37:08;;;;;;;6.95;4.43;;;9.60;91.30;;;;;;4991857;28;20049;-30
2023/11/13 09:39:39;;;;;;;11.95;5.15;;;9.70;91.30;;;;;;4992907;28;20033;-28
2023/11/13 09:42:14;;;;;;;6.53;4.38;;;9.70;91.30;;;;;;4993282;28;20080;-31
2023/11/13 09:44:41;;;;;;;9.63;4.80;;;9.70;91.40;;;;;;4993224;28;20026;-27
2023/11/13 09:47:09;;;;;;;8.25;4.00;;;9.80;91.40;;;;;;4992829;28;20030;-28
2023/11/13 09:49:41;;;;;;;5.22;3.53;;;9.80;91.40;;;;;;4993175;28;20050;-28
2023/11/13 09:52:07;;;;;;;5.53;3.38;;;9.90;91.40;;;;;;4993176;28;20479;-29
2023/11/13 09:54:33;;;;;;;5.40;3.20;;;9.90;91.40;;;;;;4993135;28;20424;-29
2023/11/13 09:57:00;;;;;;;6.18;3.00;;;10.00;91.40;;;;;;4992812;28;20106;-30
2023/11/13 09:59:33;;;;;;;8.13;3.50;;;10.10;91.50;;;;;;4992582;28;20064;-30
2023/11/13 10:01:59;;;;;;;6.72;3.10;;;10.10;91.50;;;;;;4993009;28;20034;-28
2023/11/13 10:04:26;;;;;;;4.60;2.90;;;10.20;91.50;;;;;;4992975;28;20560;-27
2023/11/13 10:06:54;;;;;;;5.28;3.08;;;10.30;91.50;;;;;;4992613;28;20117;-30
2023/11/13 10:09:24;;;;;;;4.28;2.67;;;10.30;91.50;;;;;;4992599;28;20470;-30
2023/11/13 10:11:50;;;;;;;5.57;2.72;;;10.40;91.60;;;;;;4992560;28;20085;-33
2023/11/13 10:14:18;;;;;;;5.40;2.70;;;10.40;91.60;;;;;;4992522;28;20023;-31
2023/11/13 10:16:57;;;;;;;4.30;2.22;;;10.40;91.80;;;;;;4992282;28;20042;-33
2023/11/13 10:19:23;;;;;;;3.92;2.20;;;10.40;91.60;;;;;;4992471;28;20046;-26
2023/11/13 10:21:51;;;;;;;3.13;1.92;;;10.50;91.70;;;;;;4992459;28;20069;-28
2023/11/13 10:24:21;;;;;;;4.50;2.30;;;10.50;91.70;;;;;;4992408;28;20032;-28
2023/11/13 10:26:51;;;;;;;4.00;1.90;;;10.50;91.70;;;;;;4992774;28;20034;-31
2023/11/13 10:29:27;;;;;;;3.55;2.05;;;10.50;91.80;;;;;;4992223;28;20116;-26
2023/11/13 10:32:10;;;;;;;5.75;2.35;;;10.50;91.90;;;;;;4992473;28;20125;-30
2023/11/13 10:34:46;;;;;;;;;;;10.50;92.00;;;;;;4993006;28;20113;-27
2023/11/13 10:37:13;;;;;;;2.40;1.80;;;10.50;92.10;;;;;;4992169;28;19918;-31
2023/11/13 10:39:42;;;;;;;2.83;1.63;;;10.50;92.30;;;;;;4991846;28;20057;-32
2023/11/13 10:42:27;;;;;;;4.07;1.70;;;10.50;92.30;;;;;;4992555;28;20282;-31
2023/11/13 10:44:56;;;;;;;2.65;1.60;;;10.50;92.30;;;;;;4992285;28;20567;-30
2023/11/13 10:47:35;;;;;;;2.72;1.50;;;10.50;92.50;;;;;;4990809;28;20030;-36
2023/11/13 10:50:01;;;;;;;3.08;1.63;;;10.60;92.60;;;;;;4992390;28;20022;-35
2023/11/13 10:52:28;;;;;;;2.22;1.30;;;10.60;92.60;;;;;;4992494;28;20497;-32
2023/11/13 10:54:56;;;;;;;2.33;1.50;;;10.60;92.70;;;;;;4992282;28;20471;-28
2023/11/13 10:57:26;;;;;;;4.45;1.58;;;10.60;92.70;;;;;;4992061;28;20030;-31
2023/11/13 10:59:53;;;;;;;4.97;1.77;;;10.60;92.80;;;;;;4992164;28;20482;-34
2023/11/13 11:02:48;;;;;;;3.53;1.60;;;10.60;92.80;;;;;;4991788;28;20446;-32
2023/11/13 11:05:22;;;;;;;5.00;1.50;;;10.60;93.10;;;;;;4991933;28;20034;-30
2023/11/13 11:07:52;;;;;;;5.30;1.65;;;10.60;92.80;;;;;;4992464;28;20104;-28
2023/11/13 11:10:24;;;;;;;5.65;1.58;;;10.60;92.80;;;;;;4991868;28;20034;-33
2023/11/13 11:13:03;;;;;;;3.15;2.00;;;10.60;92.90;;;;;;4992242;28;20387;-31
2023/11/13 11:15:56;;;;;;;2.45;1.58;;;10.60;92.90;;;;;;4992331;28;20039;-32
2023/11/13 11:18:37;;;;;;;1.53;1.20;;;10.60;93.00;;;;;;4991718;28;20106;-31
2023/11/13 11:21:08;;;;;;;2.47;1.30;;;10.60;92.90;;;;;;4991917;28;20287;-32
2023/11/13 11:23:46;;;;;;;2.38;1.50;;;10.60;92.90;;;;;;4991972;28;20030;-31
2023/11/13 11:26:12;;;;;;;3.97;1.60;;;10.60;92.90;;;;;;4991823;28;20399;-34
2023/11/13 11:28:47;;;;;;;3.72;1.70;;;10.60;93.00;;;;;;4992001;28;20053;-28
2023/11/13 11:31:33;;;;;;;3.70;1.83;;;10.60;93.00;;;;;;4991926;28;20049;-29
2023/11/13 11:34:00;;;;;;;4.13;1.83;;;10.70;93.10;;;;;;4990670;28;20030;-28
2023/11/13 11:36:33;;;;;;;3.22;1.83;;;10.70;93.10;;;;;;4990522;28;20030;-28
2023/11/13 11:39:11;;;;;;;2.70;2.03;;;10.70;93.20;;;;;;4991846;28;20092;-33
2023/11/13 11:41:42;;;;;;;3.30;1.67;;;10.70;93.20;;;;;;4992310;28;20031;-30
2023/11/13 11:44:11;;;;;;;3.80;1.85;;;10.70;93.10;;;;;;4992010;28;20106;-30
2023/11/13 11:46:44;;;;;;;1.90;1.63;;;10.70;93.10;;;;;;4991788;28;20097;-29
2023/11/13 11:49:28;;;;;;;3.38;2.00;;;10.70;93.10;;;;;;4995070;28;20029;-35
2023/11/13 11:52:05;;;;;;;4.22;1.60;;;10.80;93.10;;;;;;4995407;28;20030;-33
2023/11/13 11:54:33;;;;;;;3.90;2.10;;;10.80;93.10;;;;;;4995193;28;20115;-36
2023/11/13 11:57:03;;;;;;;4.47;2.05;;;10.80;93.10;;;;;;4995438;28;20022;-34
2023/11/13 11:59:30;;;;;;;4.10;2.15;;;10.80;93.10;;;;;;4995082;28;20105;-33
2023/11/13 12:01:57;;;;;;;2.53;2.17;;;10.80;93.10;;;;;;4995327;28;20035;-29
2023/11/13 12:04:23;;;;;;;4.35;2.58;;;10.90;93.10;;;;;;4995273;28;20033;-32
2023/11/13 12:06:51;;;;;;;4.20;2.10;;;10.90;93.10;;;;;;4995287;28;20027;-32
2023/11/13 12:09:17;;;;;;;3.60;2.60;;;11.00;93.10;;;;;;4994909;28;20077;-29
2023/11/13 12:11:48;;;;;;;3.60;2.75;;;11.00;93.10;;;;;;4994764;28;20022;-37
2023/11/13 12:14:14;;;;;;;4.97;3.05;;;11.10;93.10;;;;;;4995213;28;20019;-35
2023/11/13 12:16:40;;;;;;;4.70;2.67;;;11.10;93.10;;;;;;4993743;28;20052;-32
2023/11/13 12:19:06;;;;;;;5.15;2.63;;;11.10;93.10;;;;;;4994890;28;20026;-30
2023/11/13 12:21:33;;;;;;;5.53;2.90;;;11.20;93.10;;;;;;4994807;28;20526;-29
2023/11/13 12:24:00;;;;;;;5.85;2.97;;;11.20;93.10;;;;;;4994922;28;20490;-30
2023/11/13 12:26:26;;;;;;;8.15;3.10;;;11.30;93.10;;;;;;4994810;28;20034;-35
2023/11/13 12:28:52;;;;;;;4.90;3.10;;;11.30;93.10;;;;;;4994486;28;20402;-32
2023/11/13 12:31:18;;;;;;;5.25;3.13;;;11.40;93.10;;;;;;4994724;28;20035;-29
2023/11/13 12:33:45;;;;;;;8.40;3.40;;;11.50;93.10;;;;;;4994861;28;20022;-31
2023/11/13 12:36:13;;;;;;;5.20;3.33;;;11.50;93.10;;;;;;4994560;28;20030;-33
2023/11/13 12:38:46;;;;;;;8.05;3.67;;;11.60;93.10;;;;;;4993225;28;20026;-28
2023/11/13 12:41:14;;;;;;;6.00;3.10;;;11.70;93.20;;;;;;4994393;28;20068;-29
2023/11/13 12:43:42;;;;;;;8.57;3.90;;;11.70;93.10;;;;;;4994604;28;20498;-31
2023/11/13 12:46:08;;;;;;;9.30;3.45;;;11.80;93.20;;;;;;4994576;28;20065;-30
2023/11/13 12:48:35;;;;;;;7.35;3.35;;;11.90;93.30;;;;;;4994467;28;20026;-30
2023/11/13 12:51:05;;;;;;;8.10;3.17;;;11.90;93.20;;;;;;4994125;28;20031;-36
2023/11/13 12:53:34;;;;;;;7.03;3.03;;;12.00;93.20;;;;;;4994352;28;20027;-33